createdAt,value
2018-03-03T00:00:35.324Z,0.00
2018-03-03T00:01:35.344Z,0.00
2018-03-03T00:02:35.389Z,0.00
2018-03-03T00:03:35.411Z,0.00
2018-03-03T00:04:35.450Z,0.00
2018-03-03T00:05:35.491Z,0.00
2018-03-03T00:06:35.539Z,0.00
2018-03-03T00:07:35.571Z,0.00
2018-03-03T00:08:35.600Z,0.00
2018-03-03T00:09:35.639Z,0.00
2018-03-03T00:10:35.684Z,0.00
2018-03-03T00:11:35.729Z,0.00
2018-03-03T00:12:35.754Z,0.00
2018-03-03T00:13:35.808Z,0.00
2018-03-03T00:14:35.831Z,0.00
2018-03-03T00:15:35.869Z,0.00
2018-03-03T00:16:35.905Z,0.00
2018-03-03T00:17:35.969Z,0.00
2018-03-03T00:18:35.982Z,0.00
2018-03-03T00:19:36.036Z,0.00
2018-03-03T00:20:36.059Z,0.00
2018-03-03T00:21:36.097Z,0.00
2018-03-03T00:22:36.136Z,0.00
2018-03-03T00:23:36.194Z,0.00
2018-03-03T00:24:36.210Z,0.00
2018-03-03T00:25:36.269Z,0.00
2018-03-03T00:26:36.290Z,0.00
2018-03-03T00:27:36.329Z,0.00
2018-03-03T00:28:36.380Z,0.00
2018-03-03T00:29:36.402Z,0.00
2018-03-03T00:30:36.853Z,0.00
2018-03-03T00:31:36.481Z,0.00
2018-03-03T00:32:36.515Z,0.00
2018-03-03T00:33:36.556Z,0.00
2018-03-03T00:34:36.597Z,0.00
2018-03-03T00:35:36.643Z,0.00
2018-03-03T00:36:36.667Z,0.00
2018-03-03T00:37:36.706Z,0.00
2018-03-03T00:38:36.748Z,0.00
2018-03-03T00:39:36.785Z,0.00
2018-03-03T00:40:36.857Z,0.00
2018-03-03T00:41:36.860Z,0.00
2018-03-03T00:42:36.897Z,0.00
2018-03-03T00:43:36.933Z,0.00
2018-03-03T00:44:36.976Z,0.00
2018-03-03T00:45:37.026Z,0.00
2018-03-03T00:46:37.049Z,0.00
2018-03-03T00:47:37.087Z,0.00
2018-03-03T00:48:37.123Z,0.00
2018-03-03T00:49:37.167Z,0.00
2018-03-03T00:50:37.224Z,0.00
2018-03-03T00:51:37.240Z,0.00
2018-03-03T00:52:37.316Z,0.00
2018-03-03T00:53:37.314Z,0.00
2018-03-03T00:54:37.354Z,0.00
2018-03-03T00:55:37.406Z,0.00
2018-03-03T00:56:37.429Z,0.00
2018-03-03T00:57:37.466Z,0.00
2018-03-03T00:58:37.507Z,0.00
2018-03-03T00:59:37.543Z,0.00
2018-03-03T01:00:37.634Z,0.00
2018-03-03T01:01:37.618Z,0.00
2018-03-03T01:02:37.658Z,0.00
2018-03-03T01:03:37.694Z,0.00
2018-03-03T01:04:37.733Z,0.00
2018-03-03T01:05:37.787Z,0.00
2018-03-03T01:06:37.812Z,0.00
2018-03-03T01:07:37.847Z,0.00
2018-03-03T01:08:37.883Z,0.00
2018-03-03T01:09:37.925Z,0.00
2018-03-03T01:10:37.987Z,0.00
2018-03-03T01:11:38.000Z,0.00
2018-03-03T01:12:38.038Z,0.00
2018-03-03T01:13:38.075Z,0.00
2018-03-03T01:14:38.113Z,0.00
2018-03-03T01:15:38.169Z,0.00
2018-03-03T01:16:38.187Z,0.00
2018-03-03T01:17:38.225Z,0.00
2018-03-03T01:18:38.266Z,0.00
2018-03-03T01:19:38.302Z,0.00
2018-03-03T01:20:38.359Z,0.00
2018-03-03T01:21:38.380Z,0.00
2018-03-03T01:22:38.438Z,0.00
2018-03-03T01:23:38.454Z,0.00
2018-03-03T01:24:38.492Z,0.00
2018-03-03T01:25:38.529Z,0.00
2018-03-03T01:26:38.586Z,0.00
2018-03-03T01:27:38.623Z,0.00
2018-03-03T01:28:38.643Z,0.00
2018-03-03T01:29:38.680Z,0.00
2018-03-03T01:30:38.719Z,0.00
2018-03-03T01:31:38.757Z,0.00
2018-03-03T01:32:38.810Z,0.00
2018-03-03T01:33:38.832Z,0.00
2018-03-03T01:34:38.871Z,0.00
2018-03-03T01:35:38.910Z,0.00
2018-03-03T01:36:38.947Z,0.00
2018-03-03T01:37:39.007Z,0.00
2018-03-03T01:38:39.023Z,0.00
2018-03-03T01:39:39.063Z,0.00
2018-03-03T01:40:39.100Z,0.00
2018-03-03T01:41:39.139Z,0.00
2018-03-03T01:42:39.198Z,0.00
2018-03-03T01:43:39.212Z,0.00
2018-03-03T01:44:39.252Z,0.00
2018-03-03T01:45:39.290Z,0.00
2018-03-03T01:46:39.326Z,0.00
2018-03-03T01:47:39.398Z,0.00
2018-03-03T01:48:39.399Z,0.00
2018-03-03T01:49:39.441Z,0.00
2018-03-03T01:50:39.478Z,0.00
2018-03-03T01:51:39.521Z,0.00
2018-03-03T01:52:39.589Z,0.00
2018-03-03T01:53:39.596Z,0.00
2018-03-03T01:54:39.631Z,0.00
2018-03-03T01:55:39.667Z,0.00
2018-03-03T01:56:39.704Z,0.00
2018-03-03T01:57:39.758Z,0.00
2018-03-03T01:58:39.781Z,0.00
2018-03-03T01:59:39.822Z,0.00
2018-03-03T02:00:39.892Z,0.00
2018-03-03T02:01:39.895Z,0.00
2018-03-03T02:02:39.933Z,0.00
2018-03-03T02:03:39.972Z,0.00
2018-03-03T02:04:40.008Z,0.00
2018-03-03T02:05:40.065Z,0.00
2018-03-03T02:06:40.086Z,0.00
2018-03-03T02:07:40.129Z,0.00
2018-03-03T02:08:40.162Z,0.00
2018-03-03T02:09:40.198Z,0.00
2018-03-03T02:10:40.257Z,0.00
2018-03-03T02:11:40.274Z,0.00
2018-03-03T02:12:40.315Z,0.00
2018-03-03T02:13:40.350Z,0.00
2018-03-03T02:14:40.388Z,0.00
2018-03-03T02:15:40.445Z,0.00
2018-03-03T02:16:40.463Z,0.00
2018-03-03T02:17:40.506Z,0.00
2018-03-03T02:18:40.539Z,0.00
2018-03-03T02:19:40.579Z,0.00
2018-03-03T02:20:40.636Z,0.00
2018-03-03T02:21:40.690Z,0.00
2018-03-03T02:22:40.691Z,0.00
2018-03-03T02:23:40.729Z,0.00
2018-03-03T02:24:40.766Z,0.00
2018-03-03T02:25:40.807Z,0.00
2018-03-03T02:26:40.863Z,0.00
2018-03-03T02:27:40.885Z,0.00
2018-03-03T02:28:40.919Z,0.00
2018-03-03T02:29:40.956Z,0.00
2018-03-03T02:30:41.012Z,0.00
2018-03-03T02:31:41.051Z,0.00
2018-03-03T02:32:41.071Z,0.00
2018-03-03T02:33:41.108Z,0.00
2018-03-03T02:34:41.146Z,0.00
2018-03-03T02:35:41.807Z,0.00
2018-03-03T02:36:41.236Z,0.00
2018-03-03T02:37:41.293Z,0.00
2018-03-03T02:38:41.299Z,0.00
2018-03-03T02:39:41.336Z,0.00
2018-03-03T02:40:41.371Z,0.00
2018-03-03T02:41:41.414Z,0.00
2018-03-03T02:42:41.467Z,0.00
2018-03-03T02:43:41.488Z,0.00
2018-03-03T02:44:41.521Z,0.00
2018-03-03T02:45:41.561Z,0.00
2018-03-03T02:46:41.597Z,0.00
2018-03-03T02:47:41.651Z,0.00
2018-03-03T02:48:41.673Z,0.00
2018-03-03T02:49:41.712Z,0.00
2018-03-03T02:50:41.784Z,0.00
2018-03-03T02:51:41.787Z,0.00
2018-03-03T02:52:41.875Z,0.00
2018-03-03T02:53:41.863Z,0.00
2018-03-03T02:54:41.899Z,0.00
2018-03-03T02:55:41.952Z,0.00
2018-03-03T02:56:41.996Z,0.00
2018-03-03T02:57:42.014Z,0.00
2018-03-03T02:58:42.052Z,0.00
2018-03-03T02:59:42.089Z,0.00
2018-03-03T03:00:42.127Z,0.00
2018-03-03T03:01:42.185Z,0.00
2018-03-03T03:02:42.203Z,0.00
2018-03-03T03:03:42.240Z,0.00
2018-03-03T03:04:42.277Z,0.00
2018-03-03T03:05:42.317Z,0.00
2018-03-03T03:06:42.375Z,0.00
2018-03-03T03:07:42.411Z,0.00
2018-03-03T03:08:42.430Z,0.00
2018-03-03T03:09:42.470Z,0.00
2018-03-03T03:10:42.508Z,0.00
2018-03-03T03:11:42.546Z,0.00
2018-03-03T03:12:42.596Z,0.00
2018-03-03T03:13:42.621Z,0.00
2018-03-03T03:14:42.658Z,0.00
2018-03-03T03:15:42.697Z,0.00
2018-03-03T03:16:42.738Z,0.00
2018-03-03T03:17:42.796Z,0.00
2018-03-03T03:18:42.812Z,0.00
2018-03-03T03:19:42.850Z,0.00
2018-03-03T03:20:42.891Z,0.00
2018-03-03T03:21:42.928Z,0.00
2018-03-03T03:22:42.984Z,0.00
2018-03-03T03:23:43.005Z,0.00
2018-03-03T03:24:43.043Z,0.00
2018-03-03T03:25:43.106Z,0.00
2018-03-03T03:26:43.121Z,0.00
2018-03-03T03:27:43.158Z,0.00
2018-03-03T03:28:43.198Z,0.00
2018-03-03T03:29:43.238Z,0.00
2018-03-03T03:30:43.317Z,0.00
2018-03-03T03:31:43.313Z,0.00
2018-03-03T03:32:43.355Z,0.00
2018-03-03T03:33:43.394Z,0.00
2018-03-03T03:34:43.426Z,0.00
2018-03-03T03:35:43.501Z,0.00
2018-03-03T03:36:43.502Z,0.00
2018-03-03T03:37:43.541Z,0.00
2018-03-03T03:38:43.582Z,0.00
2018-03-03T03:39:43.620Z,0.00
2018-03-03T03:40:43.673Z,0.00
2018-03-03T03:41:43.697Z,0.00
2018-03-03T03:42:43.738Z,0.00
2018-03-03T03:43:43.773Z,0.00
2018-03-03T03:44:43.812Z,0.00
2018-03-03T03:45:43.873Z,0.00
2018-03-03T03:46:43.908Z,0.00
2018-03-03T03:47:43.927Z,0.00
2018-03-03T03:48:43.973Z,0.00
2018-03-03T03:49:44.004Z,0.00
2018-03-03T03:50:44.046Z,0.00
2018-03-03T03:51:44.098Z,0.00
2018-03-03T03:52:44.122Z,0.00
2018-03-03T03:53:44.162Z,0.00
2018-03-03T03:54:44.198Z,0.00
2018-03-03T03:55:44.259Z,0.00
2018-03-03T03:56:44.276Z,0.00
2018-03-03T03:57:44.314Z,0.00
2018-03-03T03:58:44.353Z,0.00
2018-03-03T03:59:44.396Z,0.00
2018-03-03T04:00:44.449Z,0.00
2018-03-03T04:01:44.468Z,0.00
2018-03-03T04:02:44.508Z,0.00
2018-03-03T04:03:44.547Z,0.00
2018-03-03T04:04:44.588Z,0.00
2018-03-03T04:05:44.641Z,0.00
2018-03-03T04:06:44.668Z,0.00
2018-03-03T04:07:44.709Z,0.00
2018-03-03T04:08:44.755Z,0.00
2018-03-03T04:09:44.778Z,0.00
2018-03-03T04:10:44.819Z,0.00
2018-03-03T04:11:44.866Z,0.00
2018-03-03T04:12:44.901Z,0.00
2018-03-03T04:13:44.955Z,0.00
2018-03-03T04:14:44.972Z,0.00
2018-03-03T04:15:45.012Z,0.00
2018-03-03T04:16:45.052Z,0.00
2018-03-03T04:17:45.104Z,0.00
2018-03-03T04:18:45.142Z,0.00
2018-03-03T04:19:45.168Z,0.00
2018-03-03T04:20:45.207Z,0.00
2018-03-03T04:21:45.244Z,0.00
2018-03-03T04:22:45.304Z,0.00
2018-03-03T04:23:45.317Z,0.00
2018-03-03T04:24:45.363Z,0.00
2018-03-03T04:25:45.400Z,0.00
2018-03-03T04:26:45.437Z,0.00
2018-03-03T04:27:45.493Z,0.00
2018-03-03T04:28:45.514Z,0.00
2018-03-03T04:29:45.572Z,0.00
2018-03-03T04:30:45.596Z,0.00
2018-03-03T04:31:45.632Z,0.00
2018-03-03T04:32:45.671Z,0.00
2018-03-03T04:33:45.725Z,0.00
2018-03-03T04:34:45.748Z,0.00
2018-03-03T04:35:45.822Z,0.00
2018-03-03T04:36:45.825Z,0.00
2018-03-03T04:37:45.865Z,0.00
2018-03-03T04:38:45.907Z,0.00
2018-03-03T04:39:45.945Z,0.00
2018-03-03T04:40:45.998Z,0.00
2018-03-03T04:41:46.021Z,0.00
2018-03-03T04:42:46.060Z,0.00
2018-03-03T04:43:46.120Z,0.00
2018-03-03T04:44:46.139Z,0.00
2018-03-03T04:45:46.216Z,0.00
2018-03-03T04:46:46.216Z,0.00
2018-03-03T04:47:46.255Z,0.00
2018-03-03T04:48:46.299Z,0.00
2018-03-03T04:49:46.332Z,0.00
2018-03-03T04:50:46.412Z,0.00
2018-03-03T04:51:46.410Z,0.00
2018-03-03T04:52:46.454Z,0.00
2018-03-03T04:53:46.494Z,0.00
2018-03-03T04:54:46.527Z,0.00
2018-03-03T04:55:46.584Z,0.00
2018-03-03T04:56:46.608Z,0.00
2018-03-03T04:57:46.648Z,0.00
2018-03-03T04:58:46.683Z,0.00
2018-03-03T04:59:46.722Z,0.00
2018-03-03T05:00:46.779Z,0.00
2018-03-03T05:01:46.805Z,0.00
2018-03-03T05:02:46.840Z,0.00
2018-03-03T05:03:46.894Z,0.00
2018-03-03T05:04:46.929Z,0.00
2018-03-03T05:05:46.960Z,0.00
2018-03-03T05:06:47.012Z,0.00
2018-03-03T05:07:47.034Z,0.00
2018-03-03T05:08:47.072Z,0.00
2018-03-03T05:09:47.112Z,0.00
2018-03-03T05:10:47.152Z,0.00
2018-03-03T05:11:47.206Z,0.00
2018-03-03T05:12:47.232Z,0.00
2018-03-03T05:13:47.267Z,0.00
2018-03-03T05:14:47.340Z,0.00
2018-03-03T05:15:47.346Z,0.00
2018-03-03T05:16:47.388Z,0.00
2018-03-03T05:17:47.423Z,0.00
2018-03-03T05:18:47.462Z,0.00
2018-03-03T05:19:47.540Z,0.00
2018-03-03T05:20:47.539Z,0.00
2018-03-03T05:21:47.585Z,0.00
2018-03-03T05:22:47.619Z,0.00
2018-03-03T05:23:47.664Z,0.00
2018-03-03T05:24:47.735Z,0.00
2018-03-03T05:25:47.747Z,0.00
2018-03-03T05:26:47.779Z,0.00
2018-03-03T05:27:47.812Z,0.00
2018-03-03T05:28:47.851Z,0.00
2018-03-03T05:29:47.910Z,0.00
2018-03-03T05:30:47.971Z,0.00
2018-03-03T05:31:47.970Z,0.00
2018-03-03T05:32:48.012Z,0.00
2018-03-03T05:33:48.051Z,0.00
2018-03-03T05:34:48.086Z,0.00
2018-03-03T05:35:48.157Z,0.00
2018-03-03T05:36:48.161Z,4.00
2018-03-03T05:37:48.204Z,0.00
2018-03-03T05:38:48.240Z,4.00
2018-03-03T05:39:48.281Z,4.00
2018-03-03T05:40:48.337Z,4.00
2018-03-03T05:41:48.357Z,8.00
2018-03-03T05:42:48.412Z,4.00
2018-03-03T05:43:48.437Z,8.00
2018-03-03T05:44:48.473Z,8.00
2018-03-03T05:45:48.514Z,8.00
2018-03-03T05:46:48.553Z,12.00
2018-03-03T05:47:48.610Z,16.00
2018-03-03T05:48:48.629Z,16.00
2018-03-03T05:49:48.669Z,16.00
2018-03-03T05:50:48.707Z,20.00
2018-03-03T05:51:48.744Z,24.00
2018-03-03T05:52:48.801Z,28.00
2018-03-03T05:53:48.841Z,32.00
2018-03-03T05:54:48.862Z,36.00
2018-03-03T05:55:48.898Z,36.00
2018-03-03T05:56:48.939Z,40.00
2018-03-03T05:57:48.978Z,44.00
2018-03-03T05:58:49.038Z,52.00
2018-03-03T05:59:49.057Z,52.00
2018-03-03T06:00:49.097Z,56.00
2018-03-03T06:01:49.137Z,60.00
2018-03-03T06:02:49.177Z,68.00
2018-03-03T06:03:49.232Z,72.00
2018-03-03T06:04:49.252Z,80.00
2018-03-03T06:05:49.300Z,88.00
2018-03-03T06:06:49.329Z,96.00
2018-03-03T06:07:49.370Z,108.00
2018-03-03T06:08:49.425Z,116.00
2018-03-03T06:09:49.446Z,124.00
2018-03-03T06:10:49.808Z,136.00
2018-03-03T06:11:49.525Z,144.00
2018-03-03T06:12:49.562Z,156.00
2018-03-03T06:13:49.602Z,168.00
2018-03-03T06:14:49.664Z,180.00
2018-03-03T06:15:49.681Z,188.00
2018-03-03T06:16:49.721Z,200.00
2018-03-03T06:17:49.760Z,208.00
2018-03-03T06:18:49.799Z,220.00
2018-03-03T06:19:49.854Z,232.00
2018-03-03T06:20:49.873Z,248.00
2018-03-03T06:21:49.914Z,260.00
2018-03-03T06:22:49.968Z,280.00
2018-03-03T06:23:49.993Z,296.00
2018-03-03T06:24:50.032Z,316.00
2018-03-03T06:25:50.084Z,332.00
2018-03-03T06:26:50.110Z,348.00
2018-03-03T06:27:50.148Z,356.00
2018-03-03T06:28:50.201Z,368.00
2018-03-03T06:29:50.228Z,380.00
2018-03-03T06:30:50.290Z,388.00
2018-03-03T06:31:50.306Z,396.00
2018-03-03T06:32:50.343Z,408.00
2018-03-03T06:33:50.381Z,420.00
2018-03-03T06:34:50.420Z,428.00
2018-03-03T06:35:50.478Z,436.00
2018-03-03T06:36:50.497Z,448.00
2018-03-03T06:37:50.539Z,456.00
2018-03-03T06:38:50.610Z,460.00
2018-03-03T06:39:50.621Z,468.00
2018-03-03T06:40:50.659Z,476.00
2018-03-03T06:41:50.693Z,484.00
2018-03-03T06:42:50.733Z,496.00
2018-03-03T06:43:50.806Z,508.00
2018-03-03T06:44:50.812Z,520.00
2018-03-03T06:45:50.853Z,532.00
2018-03-03T06:46:50.898Z,548.00
2018-03-03T06:47:50.933Z,560.00
2018-03-03T06:48:50.988Z,576.00
2018-03-03T06:49:51.008Z,592.00
2018-03-03T06:50:51.049Z,604.00
2018-03-03T06:51:51.103Z,616.00
2018-03-03T06:52:51.126Z,632.00
2018-03-03T06:53:51.202Z,644.00
2018-03-03T06:54:51.224Z,652.00
2018-03-03T06:55:51.245Z,668.00
2018-03-03T06:56:51.287Z,680.00
2018-03-03T06:57:51.324Z,692.00
2018-03-03T06:58:51.363Z,704.00
2018-03-03T06:59:51.421Z,716.00
2018-03-03T07:00:51.445Z,732.00
2018-03-03T07:01:51.500Z,748.00
2018-03-03T07:02:51.522Z,768.00
2018-03-03T07:03:51.569Z,788.00
2018-03-03T07:04:51.606Z,812.00
2018-03-03T07:05:51.640Z,832.00
2018-03-03T07:06:51.700Z,864.00
2018-03-03T07:07:51.719Z,900.00
2018-03-03T07:08:51.759Z,948.00
2018-03-03T07:09:51.798Z,1008.00
2018-03-03T07:10:51.838Z,1064.00
2018-03-03T07:11:51.909Z,1116.00
2018-03-03T07:12:51.920Z,1160.00
2018-03-03T07:13:51.958Z,1188.00
2018-03-03T07:14:52.013Z,1212.00
2018-03-03T07:15:52.036Z,1236.00
2018-03-03T07:16:52.095Z,1268.00
2018-03-03T07:17:52.116Z,1316.00
2018-03-03T07:18:52.156Z,1380.00
2018-03-03T07:19:52.198Z,1468.00
2018-03-03T07:20:52.237Z,1556.00
2018-03-03T07:21:52.292Z,1644.00
2018-03-03T07:22:52.321Z,1716.00
2018-03-03T07:23:52.356Z,1800.00
2018-03-03T07:24:52.398Z,1868.00
2018-03-03T07:25:52.458Z,1944.00
2018-03-03T07:26:52.476Z,2024.00
2018-03-03T07:27:52.532Z,2116.00
2018-03-03T07:28:52.563Z,2208.00
2018-03-03T07:29:52.599Z,2344.00
2018-03-03T07:30:52.641Z,2504.00
2018-03-03T07:31:52.680Z,2600.00
2018-03-03T07:32:52.734Z,3312.00
2018-03-03T07:33:52.755Z,3660.00
2018-03-03T07:34:52.803Z,3884.00
2018-03-03T07:35:52.838Z,4076.00
2018-03-03T07:36:52.878Z,4208.00
2018-03-03T07:37:52.940Z,4276.00
2018-03-03T07:38:52.960Z,4576.00
2018-03-03T07:39:53.000Z,4440.00
2018-03-03T07:40:53.039Z,4212.00
2018-03-03T07:41:53.081Z,4044.00
2018-03-03T07:42:53.140Z,4808.00
2018-03-03T07:43:53.159Z,5324.00
2018-03-03T07:44:53.203Z,5364.00
2018-03-03T07:45:53.242Z,5704.00
2018-03-03T07:46:53.283Z,6072.00
2018-03-03T07:47:53.343Z,6472.00
2018-03-03T07:48:53.366Z,6540.00
2018-03-03T07:49:53.409Z,6628.00
2018-03-03T07:50:53.449Z,6792.00
2018-03-03T07:51:53.494Z,6800.00
2018-03-03T07:52:53.555Z,6944.00
2018-03-03T07:53:53.578Z,7340.00
2018-03-03T07:54:53.619Z,6988.00
2018-03-03T07:55:53.670Z,5772.00
2018-03-03T07:56:53.710Z,6376.00
2018-03-03T07:57:53.767Z,6768.00
2018-03-03T07:58:53.800Z,6780.00
2018-03-03T07:59:53.852Z,6892.00
2018-03-03T08:00:53.880Z,6712.00
2018-03-03T08:01:53.929Z,6780.00
2018-03-03T08:02:53.970Z,6528.00
2018-03-03T08:03:54.024Z,7104.00
2018-03-03T08:04:54.071Z,7524.00
2018-03-03T08:05:54.102Z,8248.00
2018-03-03T08:06:54.149Z,8900.00
2018-03-03T08:07:54.192Z,9620.00
2018-03-03T08:08:54.237Z,10220.00
2018-03-03T08:09:54.305Z,10828.00
2018-03-03T08:10:54.330Z,11248.00
2018-03-03T08:11:54.372Z,11520.00
2018-03-03T08:12:54.461Z,12012.00
2018-03-03T08:13:54.478Z,12560.00
2018-03-03T08:14:54.507Z,12940.00
2018-03-03T08:15:54.552Z,13396.00
2018-03-03T08:16:54.598Z,14004.00
2018-03-03T08:17:54.646Z,14380.00
2018-03-03T08:18:54.705Z,14620.00
2018-03-03T08:19:54.737Z,15032.00
2018-03-03T08:20:54.836Z,15840.00
2018-03-03T08:21:54.828Z,16608.00
2018-03-03T08:22:54.878Z,17536.00
2018-03-03T08:23:54.938Z,18368.00
2018-03-03T08:24:54.963Z,27776.00
2018-03-03T08:25:55.028Z,34176.00
2018-03-03T08:26:55.055Z,37184.00
2018-03-03T08:27:55.100Z,35264.00
2018-03-03T08:28:55.184Z,36288.00
2018-03-03T08:29:55.205Z,31008.00
2018-03-03T08:30:55.254Z,33536.00
2018-03-03T08:31:55.295Z,34720.00
2018-03-03T08:32:55.335Z,41952.00
2018-03-03T08:33:55.384Z,36832.00
2018-03-03T08:34:55.427Z,40800.00
2018-03-03T08:35:55.502Z,44704.00
2018-03-03T08:36:55.522Z,50560.00
2018-03-03T08:37:55.568Z,49056.00
2018-03-03T08:38:55.616Z,49760.00
2018-03-03T08:39:55.661Z,48640.00
2018-03-03T08:40:55.729Z,49856.00
2018-03-03T08:41:55.758Z,48128.00
2018-03-03T08:42:55.806Z,42368.00
2018-03-03T08:43:55.875Z,43904.00
2018-03-03T08:44:55.901Z,46400.00
2018-03-03T08:45:55.968Z,51392.00
2018-03-03T08:46:55.999Z,51392.00
2018-03-03T08:47:56.042Z,52864.00
2018-03-03T08:48:56.098Z,48672.00
2018-03-03T08:49:56.141Z,46048.00
2018-03-03T08:50:56.213Z,49344.00
2018-03-03T08:51:56.255Z,53344.00
2018-03-03T08:52:56.289Z,46240.00
2018-03-03T08:53:56.338Z,34464.00
2018-03-03T08:54:56.390Z,30944.00
2018-03-03T08:55:56.434Z,30144.00
2018-03-03T08:56:56.498Z,29632.00
2018-03-03T08:57:56.531Z,42400.00
2018-03-03T08:58:56.578Z,43072.00
2018-03-03T08:59:56.628Z,35808.00
2018-03-03T09:00:56.676Z,35744.00
2018-03-03T09:01:56.740Z,34560.00
2018-03-03T09:02:56.773Z,37696.00
2018-03-03T09:03:56.818Z,44096.00
2018-03-03T09:04:56.868Z,41824.00
2018-03-03T09:05:56.923Z,42912.00
2018-03-03T09:06:56.978Z,43456.00
2018-03-03T09:07:57.044Z,35968.00
2018-03-03T09:08:57.061Z,33920.00
2018-03-03T09:09:57.103Z,32320.00
2018-03-03T09:10:57.151Z,30912.00
2018-03-03T09:11:57.200Z,30240.00
2018-03-03T09:12:57.286Z,29664.00
2018-03-03T09:13:57.295Z,29088.00
2018-03-03T09:14:57.341Z,28704.00
2018-03-03T09:15:57.386Z,28160.00
2018-03-03T09:16:57.433Z,27584.00
2018-03-03T09:17:57.495Z,27072.00
2018-03-03T09:18:57.529Z,27072.00
2018-03-03T09:19:57.568Z,27200.00
2018-03-03T09:20:57.616Z,27616.00
2018-03-03T09:21:57.661Z,28160.00
2018-03-03T09:22:57.720Z,28800.00
2018-03-03T09:23:57.770Z,29792.00
2018-03-03T09:24:57.799Z,31264.00
2018-03-03T09:25:57.847Z,34720.00
2018-03-03T09:26:57.897Z,33792.00
2018-03-03T09:27:57.951Z,32736.00
2018-03-03T09:28:57.982Z,32832.00
2018-03-03T09:29:58.029Z,61248.00
2018-03-03T09:30:58.084Z,32256.00
2018-03-03T09:31:58.122Z,32224.00
2018-03-03T09:32:58.177Z,40768.00
2018-03-03T09:33:58.211Z,44416.00
2018-03-03T09:34:58.272Z,62112.00
2018-03-03T09:35:58.299Z,44992.00
2018-03-03T09:36:58.346Z,45728.00
2018-03-03T09:37:58.389Z,44256.00
2018-03-03T09:38:58.436Z,87776.00
2018-03-03T09:39:58.496Z,57792.00
2018-03-03T09:40:58.525Z,73792.00
2018-03-03T09:41:58.571Z,48832.00
2018-03-03T09:42:58.619Z,53504.00
2018-03-03T09:43:58.666Z,47008.00
2018-03-03T09:44:58.734Z,70400.00
2018-03-03T09:45:58.754Z,55328.00
2018-03-03T09:46:58.801Z,54176.00
2018-03-03T09:47:58.848Z,36000.00
2018-03-03T09:48:58.897Z,43968.00
2018-03-03T09:49:58.960Z,36160.00
2018-03-03T09:50:58.987Z,39968.00
2018-03-03T09:51:59.034Z,39488.00
2018-03-03T09:52:59.077Z,43648.00
2018-03-03T09:53:59.126Z,45664.00
2018-03-03T09:54:59.189Z,69664.00
2018-03-03T09:55:59.221Z,90144.00
2018-03-03T09:56:59.268Z,80320.00
2018-03-03T09:57:59.310Z,65440.00
2018-03-03T09:58:59.356Z,61856.00
2018-03-03T09:59:59.425Z,64256.00
2018-03-03T10:00:59.467Z,52896.00
2018-03-03T10:02:06.291Z,59008.00
2018-03-03T10:02:59.539Z,55104.00
2018-03-03T10:03:59.590Z,61184.00
2018-03-03T10:04:59.641Z,68096.00
2018-03-03T10:05:59.811Z,50112.00
2018-03-03T10:06:59.730Z,50688.00
2018-03-03T10:07:59.774Z,40512.00
2018-03-03T10:08:59.823Z,47360.00
2018-03-03T10:09:59.865Z,60160.00
2018-03-03T10:10:59.930Z,59424.00
2018-03-03T10:11:59.960Z,60000.00
2018-03-03T10:13:00.011Z,60832.00
2018-03-03T10:14:00.053Z,62752.00
2018-03-03T10:15:00.106Z,63904.00
2018-03-03T10:16:00.160Z,50560.00
2018-03-03T10:17:00.213Z,54496.00
2018-03-03T10:18:00.243Z,48640.00
2018-03-03T10:19:00.282Z,52384.00
2018-03-03T10:20:00.331Z,57792.00
2018-03-03T10:21:00.379Z,64832.00
2018-03-03T10:22:00.440Z,60032.00
2018-03-03T10:23:00.471Z,55904.00
2018-03-03T10:24:00.514Z,47424.00
2018-03-03T10:25:00.563Z,41696.00
2018-03-03T10:26:00.607Z,38976.00
2018-03-03T10:27:00.674Z,36000.00
2018-03-03T10:28:00.722Z,32640.00
2018-03-03T10:29:00.748Z,32864.00
2018-03-03T10:30:00.794Z,33056.00
2018-03-03T10:31:00.841Z,33056.00
2018-03-03T10:32:00.887Z,31264.00
2018-03-03T10:33:01.021Z,30976.00
2018-03-03T10:34:00.982Z,33760.00
2018-03-03T10:35:01.031Z,36256.00
2018-03-03T10:36:01.074Z,36288.00
2018-03-03T10:37:01.120Z,41120.00
2018-03-03T10:38:01.187Z,54528.00
2018-03-03T10:39:01.226Z,67776.00
2018-03-03T10:40:01.262Z,70752.00
2018-03-03T10:41:01.311Z,69472.00
2018-03-03T10:42:01.354Z,68608.00
2018-03-03T10:43:01.418Z,72352.00
2018-03-03T10:44:01.446Z,82464.00
2018-03-03T10:45:01.494Z,94176.00
2018-03-03T10:46:01.544Z,102464.00
2018-03-03T10:47:01.589Z,96800.00
2018-03-03T10:48:01.654Z,100896.00
2018-03-03T10:49:01.681Z,106528.00
2018-03-03T10:50:01.737Z,98560.00
2018-03-03T10:51:01.778Z,96224.00
2018-03-03T10:52:01.826Z,84032.00
2018-03-03T10:53:01.891Z,76800.00
2018-03-03T10:54:01.919Z,72064.00
2018-03-03T10:55:01.968Z,69696.00
2018-03-03T10:56:02.016Z,68032.00
2018-03-03T10:57:02.066Z,69632.00
2018-03-03T10:58:02.128Z,63552.00
2018-03-03T10:59:02.163Z,78336.00
2018-03-03T11:00:02.214Z,83680.00
2018-03-03T11:01:02.275Z,67744.00
2018-03-03T11:02:02.311Z,70112.00
2018-03-03T11:03:02.357Z,72096.00
2018-03-03T11:04:02.460Z,65184.00
2018-03-03T11:05:02.456Z,48512.00
2018-03-03T11:06:02.531Z,61536.00
2018-03-03T11:07:02.564Z,56416.00
2018-03-03T11:08:02.603Z,55584.00
2018-03-03T11:09:02.650Z,48384.00
2018-03-03T11:10:02.707Z,45440.00
2018-03-03T11:11:02.776Z,49664.00
2018-03-03T11:12:02.798Z,56256.00
2018-03-03T11:13:02.902Z,74432.00
2018-03-03T11:14:02.946Z,58528.00
2018-03-03T11:15:02.994Z,80192.00
2018-03-03T11:16:03.079Z,75712.00
2018-03-03T11:17:03.135Z,66560.00
2018-03-03T11:18:03.154Z,61216.00
2018-03-03T11:19:03.182Z,93920.00
2018-03-03T11:20:03.222Z,87424.00
2018-03-03T11:21:03.991Z,66240.00
2018-03-03T11:22:03.279Z,66208.00
2018-03-03T11:23:03.365Z,73056.00
2018-03-03T11:24:03.374Z,57760.00
2018-03-03T11:25:03.424Z,46528.00
2018-03-03T11:26:03.472Z,50208.00
2018-03-03T11:27:03.528Z,64608.00
2018-03-03T11:28:03.594Z,83520.00
2018-03-03T11:29:03.616Z,77376.00
2018-03-03T11:30:03.674Z,77248.00
2018-03-03T11:31:03.715Z,64800.00
2018-03-03T11:32:03.764Z,64704.00
2018-03-03T11:33:03.828Z,75456.00
2018-03-03T11:34:03.860Z,83232.00
2018-03-03T11:35:03.913Z,75584.00
2018-03-03T11:36:03.961Z,83808.00
2018-03-03T11:37:04.006Z,94656.00
2018-03-03T11:38:04.073Z,74976.00
2018-03-03T11:39:04.105Z,81056.00
2018-03-03T11:40:04.156Z,86720.00
2018-03-03T11:41:04.204Z,58368.00
2018-03-03T11:42:04.253Z,58976.00
2018-03-03T11:43:04.322Z,59392.00
2018-03-03T11:44:04.358Z,57792.00
2018-03-03T11:45:04.399Z,71648.00
2018-03-03T11:46:05.301Z,72960.00
2018-03-03T11:47:04.516Z,50240.00
2018-03-03T11:48:04.570Z,57888.00
2018-03-03T11:49:04.603Z,60192.00
2018-03-03T11:50:04.652Z,60640.00
2018-03-03T11:51:04.717Z,48800.00
2018-03-03T11:52:04.752Z,50624.00
2018-03-03T11:53:04.821Z,46112.00
2018-03-03T11:54:04.850Z,39328.00
2018-03-03T11:55:05.498Z,35680.00
2018-03-03T11:56:04.952Z,33280.00
2018-03-03T11:57:04.997Z,31456.00
2018-03-03T11:58:05.068Z,30304.00
2018-03-03T11:59:05.096Z,29920.00
2018-03-03T12:00:05.145Z,30464.00
2018-03-03T12:01:05.192Z,30368.00
2018-03-03T12:02:05.244Z,29920.00
2018-03-03T12:03:05.305Z,30208.00
2018-03-03T12:04:05.340Z,26944.00
2018-03-03T12:05:05.390Z,25824.00
2018-03-03T12:06:05.433Z,25920.00
2018-03-03T12:07:05.487Z,26752.00
2018-03-03T12:08:05.548Z,28416.00
2018-03-03T12:09:05.580Z,30784.00
2018-03-03T12:10:05.644Z,34240.00
2018-03-03T12:11:05.673Z,36160.00
2018-03-03T12:12:05.720Z,36064.00
2018-03-03T12:13:05.769Z,36640.00
2018-03-03T12:14:05.836Z,36960.00
2018-03-03T12:15:05.869Z,36992.00
2018-03-03T12:16:05.913Z,36480.00
2018-03-03T12:17:05.959Z,36064.00
2018-03-03T12:18:06.013Z,36128.00
2018-03-03T12:19:06.070Z,37152.00
2018-03-03T12:20:06.098Z,39904.00
2018-03-03T12:21:06.144Z,42720.00
2018-03-03T12:22:06.192Z,39488.00
2018-03-03T12:23:06.241Z,38496.00
2018-03-03T12:24:06.315Z,37376.00
2018-03-03T12:25:06.333Z,36256.00
2018-03-03T12:26:06.380Z,36064.00
2018-03-03T12:27:06.446Z,36192.00
2018-03-03T12:28:06.475Z,35424.00
2018-03-03T12:29:06.522Z,34112.00
2018-03-03T12:30:06.582Z,30944.00
2018-03-03T12:31:06.615Z,28864.00
2018-03-03T12:32:06.673Z,27872.00
2018-03-03T12:33:06.724Z,27200.00